yourdailypornstars.com alexa rank chart, yourdailypornstars.com alexa rank daily changes

yourdailypornstars.com alexa rank chart, yourdailypornstars.com alexa rank daily changes

yourdailypornstars.com
Actual rank:
193 672

RANK HISTORY

Date Rank Diff
2018/04/24 193 672 +109 417
2018/04/23 84 255 +15 628
2018/04/22 68 627 +42 395
2018/04/21 26 232 -3 031
2018/04/20 29 263 -38 546
2018/04/19 67 809 +1 807
2018/04/18 66 002 -9 448
2018/04/17 75 450 +11 778
2018/04/16 63 672 -549
2018/04/15 64 221 -35 327
2018/04/14 99 548 -31 870
2018/04/13 131 418 +49 562
2018/04/12 81 856 +4 155
2018/04/11 77 701 +35 571
2018/04/10 42 130 -13 010
2018/04/09 55 140 -14 083
2018/04/08 69 223 -20 259
2018/04/07 89 482 +5 400
2018/04/06 84 082 +11 924
2018/04/05 72 158 +5 888
2018/04/04 66 270 +11 079
2018/04/03 55 191 -11 787
2018/04/02 66 978 -10 406
2018/04/01 77 384 +26 743
2018/03/31 50 641 -57 043
2018/03/30 107 684 +31 805
2018/03/29 75 879 -27 619
2018/03/28 103 498 +53 759
2018/03/27 49 739 -3 855
2018/03/26 53 594 -22 548
2018/03/25 76 142 -23 086
2018/03/24 99 228 -31 300
2018/03/23 130 528 -13 099
2018/03/22 143 627 -45 550
2018/03/21 189 177 +118 540
2018/03/20 70 637 -56 578
2018/03/19 127 215 +9 503
2018/03/18 117 712 -246
2018/03/17 117 958 -132 968
2018/03/16 250 926 +67 169
2018/03/14 183 757 -13 991
2018/03/13 197 748 +27 520
2018/03/12 170 228 -307 876
2018/03/11 478 104 -353 604
2018/03/10 831 708 +611 212
2018/03/09 220 496 -102 682
2018/03/08 323 178 +185 167
2018/03/07 138 011 +24 371
2018/03/06 113 640 -167 638
2018/03/05 281 278 +51
2018/03/04 281 227 -68 472
2018/03/03 349 699 +160 684
2018/03/02 189 015 -86 793
2018/03/01 275 808 -615 860
2018/02/28 891 668 +576 457
2018/02/27 315 211 -237 782
2018/02/26 552 993 +81 086
2018/02/25 471 907 +380 538
2018/02/24 91 369 -604 716
2018/02/23 696 085

WIDGET FOR YOUR SITE

DOMAINS WITH THE NEAREST RANK

Domain Rank
hgshop.hr 193 667
naspers.com 193 668
politicalsciencenotes.com 193 669
digsdigs.com 193 670
design-homes.ru 193 671
yourdailypornstars.com 193 672
linuxtv.org 193 673
ihcs.ac.ir 193 674
memleket.com.tr 193 675
albertdros.com 193 676
makespace.com 193 677

DOMAINS WITH THE NEAREST RANK BY TLD .com

Domain Rank
paddockspares.com 193 656
iv-capriz.com 193 657
naspers.com 193 668
politicalsciencenotes.com 193 669
digsdigs.com 193 670
yourdailypornstars.com 193 672
albertdros.com 193 676
makespace.com 193 677
bestbuyiptv.com 193 678
uadforum.com 193 679
sintesis.com 193 680